createdAt,value
2023-02-25T00:00:19.256Z,96335.47
2023-02-25T00:01:22.696Z,96332.34
2023-02-25T00:02:24.432Z,96342.22
2023-02-25T00:03:26.084Z,96334.75
2023-02-25T00:04:28.715Z,96331.81
2023-02-25T00:05:31.856Z,96329.47
2023-02-25T00:06:33.619Z,96334.63
2023-02-25T00:07:35.212Z,96329.94
2023-02-25T00:08:36.795Z,96330.72
2023-02-25T00:09:38.392Z,96330.84
2023-02-25T00:10:39.938Z,96333.06
2023-02-25T00:11:41.483Z,96329.50
2023-02-25T00:12:43.895Z,96328.28
2023-02-25T00:13:45.969Z,96335.13
2023-02-25T00:14:47.543Z,96331.19
2023-02-25T00:15:49.055Z,96326.38
2023-02-25T00:16:51.032Z,96326.13
2023-02-25T00:17:52.644Z,96329.84
2023-02-25T00:18:57.821Z,96325.00
2023-02-25T00:20:00.565Z,96330.47
2023-02-25T00:21:06.265Z,96332.88
2023-02-25T00:22:07.809Z,96326.09
2023-02-25T00:23:09.354Z,96330.28
2023-02-25T00:24:16.505Z,96330.03
2023-02-25T00:25:18.825Z,96325.47
2023-02-25T00:26:21.879Z,96324.69
2023-02-25T00:27:24.722Z,96323.56
2023-02-25T00:28:27.102Z,96330.03
2023-02-25T00:29:28.834Z,96320.59
2023-02-25T00:30:30.394Z,96322.75
2023-02-25T00:31:32.712Z,96319.41
2023-02-25T00:32:34.454Z,96322.75
2023-02-25T00:33:36.242Z,96320.91
2023-02-25T00:34:37.772Z,96318.47
2023-02-25T00:35:40.983Z,96319.22
2023-02-25T00:36:42.574Z,96305.59
2023-02-25T00:37:44.176Z,96307.75
2023-02-25T00:38:50.186Z,96314.88
2023-02-25T00:39:51.776Z,96307.75
2023-02-25T00:40:53.334Z,96300.91
2023-02-25T00:41:54.850Z,96308.50
2023-02-25T00:42:56.398Z,96304.88
2023-02-25T00:44:00.036Z,96305.31
2023-02-25T00:45:01.620Z,96299.44
2023-02-25T00:46:03.216Z,96305.03
2023-02-25T00:47:05.269Z,96303.94
2023-02-25T00:48:07.660Z,96302.16
2023-02-25T00:49:09.205Z,96295.94
2023-02-25T00:50:11.509Z,96299.31
2023-02-25T00:51:19.560Z,96296.19
2023-02-25T00:52:21.186Z,96291.94
2023-02-25T00:53:22.775Z,96300.19
2023-02-25T00:54:24.616Z,96307.81
2023-02-25T00:55:33.363Z,96294.66
2023-02-25T00:56:35.084Z,96295.22
2023-02-25T00:57:36.626Z,96298.13
2023-02-25T00:58:38.788Z,96300.47
2023-02-25T00:59:40.347Z,96296.78
2023-02-25T01:00:51.483Z,96287.53
2023-02-25T01:01:53.499Z,96294.91
2023-02-25T01:02:57.695Z,96299.31
2023-02-25T01:04:01.347Z,96295.31
2023-02-25T01:05:03.644Z,96292.63
2023-02-25T01:06:08.419Z,96294.59
2023-02-25T01:07:11.329Z,96285.22
2023-02-25T01:08:12.864Z,96283.78
2023-02-25T01:09:14.504Z,96282.56
2023-02-25T01:10:16.438Z,96277.91
2023-02-25T01:11:27.740Z,96278.47
2023-02-25T01:12:30.259Z,96278.59
2023-02-25T01:13:31.853Z,96285.31
2023-02-25T01:14:33.422Z,96277.75
2023-02-25T01:15:35.201Z,96285.69
2023-02-25T01:16:37.310Z,96272.97
2023-02-25T01:17:39.030Z,96274.09
2023-02-25T01:18:40.761Z,96276.66
2023-02-25T01:19:42.324Z,96273.34
2023-02-25T01:20:43.839Z,96266.31
2023-02-25T01:21:47.338Z,96266.19
2023-02-25T01:22:48.954Z,96270.53
2023-02-25T01:23:50.462Z,96277.13
2023-02-25T01:24:54.959Z,96272.44
2023-02-25T01:25:56.487Z,96272.44
2023-02-25T01:27:01.310Z,96278.69
2023-02-25T01:28:02.892Z,96272.00
2023-02-25T01:29:09.075Z,96263.53
2023-02-25T01:30:12.674Z,96272.56
2023-02-25T01:31:29.524Z,96270.19
2023-02-25T01:32:31.587Z,96266.53
2023-02-25T01:33:33.267Z,96274.00
2023-02-25T01:34:35.360Z,96278.69
2023-02-25T01:35:37.026Z,96262.97
2023-02-25T01:36:38.551Z,96268.19
2023-02-25T01:37:40.666Z,96261.97
2023-02-25T01:38:42.242Z,96260.97
2023-02-25T01:39:43.803Z,96262.31
2023-02-25T01:40:45.330Z,96258.63
2023-02-25T01:41:48.847Z,96257.94
2023-02-25T01:42:50.621Z,96261.06
2023-02-25T01:44:14.083Z,96258.50
2023-02-25T01:45:19.079Z,96258.19
2023-02-25T01:46:21.035Z,96258.84
2023-02-25T01:47:22.915Z,96252.59
2023-02-25T01:48:29.220Z,96254.84
2023-02-25T01:49:33.023Z,96250.16
2023-02-25T01:50:58.684Z,96252.28
2023-02-25T01:52:17.028Z,96250.81
2023-02-25T01:53:24.492Z,96251.94
2023-02-25T01:54:26.173Z,96252.81
2023-02-25T01:55:28.036Z,96257.28
2023-02-25T01:56:31.454Z,96252.59
2023-02-25T01:57:32.997Z,96249.50
2023-02-25T01:58:35.076Z,96250.16
2023-02-25T01:59:39.134Z,96247.84
2023-02-25T02:00:40.990Z,96247.06
2023-02-25T02:01:43.702Z,96240.91
2023-02-25T02:02:49.363Z,96238.13
2023-02-25T02:03:52.277Z,96237.25
2023-02-25T02:04:54.878Z,96232.56
2023-02-25T02:06:02.575Z,96234.56
2023-02-25T02:07:04.409Z,96231.00
2023-02-25T02:08:06.348Z,96235.69
2023-02-25T02:09:13.339Z,96235.91
2023-02-25T02:10:14.900Z,96236.34
2023-02-25T02:11:17.087Z,96238.34
2023-02-25T02:12:18.690Z,96243.94
2023-02-25T02:13:20.459Z,96245.03
2023-02-25T02:14:27.383Z,96240.81
2023-02-25T02:15:34.222Z,96242.56
2023-02-25T02:16:53.439Z,96237.00
2023-02-25T02:18:03.328Z,96235.66
2023-02-25T02:19:50.465Z,96233.66
2023-02-25T02:21:17.871Z,96237.44
2023-02-25T02:22:43.953Z,96237.34
2023-02-25T02:24:03.839Z,96240.44
2023-02-25T02:25:08.087Z,96233.44
2023-02-25T02:26:28.981Z,96233.84
2023-02-25T02:27:56.779Z,96231.53
2023-02-25T02:29:16.793Z,96234.63
2023-02-25T02:30:35.061Z,96239.31
2023-02-25T02:31:36.630Z,96236.19
2023-02-25T02:32:47.894Z,96234.75
2023-02-25T02:33:58.323Z,96237.84
2023-02-25T02:35:20.731Z,96240.31
2023-02-25T02:36:46.707Z,96240.53
2023-02-25T02:38:13.128Z,96236.81
2023-02-25T02:39:26.487Z,96243.06
2023-02-25T02:40:54.637Z,96238.72
2023-02-25T02:42:28.527Z,96232.25
2023-02-25T02:44:12.309Z,96238.75
2023-02-25T02:45:23.866Z,96229.19
2023-02-25T02:46:39.526Z,96229.66
2023-02-25T02:47:45.652Z,96235.00
2023-02-25T02:48:54.459Z,96240.16
2023-02-25T02:50:31.754Z,96231.00
2023-02-25T02:51:43.610Z,96232.78
2023-02-25T02:52:51.363Z,96228.91
2023-02-25T02:53:57.386Z,96230.09
2023-02-25T02:55:13.717Z,96222.97
2023-02-25T02:56:19.160Z,96215.16
2023-02-25T02:57:22.501Z,96218.94
2023-02-25T02:58:35.347Z,96223.94
2023-02-25T02:59:42.934Z,96217.81
2023-02-25T03:00:49.498Z,96216.06
2023-02-25T03:01:57.166Z,96220.75
2023-02-25T03:03:07.228Z,96223.22
2023-02-25T03:04:14.182Z,96223.22
2023-02-25T03:05:17.585Z,96229.22
2023-02-25T03:06:23.613Z,96222.44
2023-02-25T03:07:26.146Z,96221.66
2023-02-25T03:08:31.847Z,96220.97
2023-02-25T03:09:41.032Z,96220.31
2023-02-25T03:10:42.907Z,96217.31
2023-02-25T03:11:44.839Z,96219.19
2023-02-25T03:12:46.403Z,96219.53
2023-02-25T03:13:48.327Z,96220.97
2023-02-25T03:14:49.971Z,96225.66
2023-02-25T03:15:53.041Z,96225.00
2023-02-25T03:17:20.013Z,96231.44
2023-02-25T03:18:49.537Z,96226.75
2023-02-25T03:20:00.013Z,96233.22
2023-02-25T03:21:07.112Z,96221.09
2023-02-25T03:22:15.357Z,96223.66
2023-02-25T03:23:28.732Z,96220.06
2023-02-25T03:24:39.458Z,96215.88
2023-02-25T03:25:54.344Z,96206.72
2023-02-25T03:26:56.205Z,96202.03
2023-02-25T03:28:05.693Z,96198.63
2023-02-25T03:29:07.337Z,96204.72
2023-02-25T03:30:15.153Z,96202.25
2023-02-25T03:31:25.451Z,96202.03
2023-02-25T03:32:29.058Z,96201.16
2023-02-25T03:33:41.008Z,96205.81
2023-02-25T03:34:46.724Z,96197.25
2023-02-25T03:35:49.770Z,96197.00
2023-02-25T03:37:00.065Z,96199.00
2023-02-25T03:38:11.725Z,96196.00
2023-02-25T03:39:20.946Z,96194.09
2023-02-25T03:40:24.162Z,96194.44
2023-02-25T03:41:31.491Z,96189.78
2023-02-25T03:42:34.989Z,96191.56
2023-02-25T03:43:43.892Z,96181.75
2023-02-25T03:44:51.107Z,96180.66
2023-02-25T03:45:54.459Z,96190.69
2023-02-25T03:46:58.040Z,96187.78
2023-02-25T03:48:00.182Z,96187.56
2023-02-25T03:49:04.272Z,96192.34
2023-02-25T03:50:12.144Z,96200.47
2023-02-25T03:51:18.303Z,96199.56
2023-02-25T03:52:22.878Z,96206.13
2023-02-25T03:53:24.523Z,96206.38
2023-02-25T03:54:27.422Z,96202.50
2023-02-25T03:55:29.630Z,96201.47
2023-02-25T03:56:41.491Z,96196.47
2023-02-25T03:57:45.298Z,96196.03
2023-02-25T03:58:46.827Z,96189.59
2023-02-25T03:59:49.106Z,96200.28
2023-02-25T04:00:56.092Z,96185.81
2023-02-25T04:01:59.292Z,96189.59
2023-02-25T04:03:01.177Z,96184.69
2023-02-25T04:04:02.740Z,96191.25
2023-02-25T04:05:04.554Z,96186.47
2023-02-25T04:06:06.192Z,96185.34
2023-02-25T04:07:07.764Z,96184.34
2023-02-25T04:08:15.878Z,96181.56
2023-02-25T04:09:18.337Z,96186.25
2023-02-25T04:10:19.918Z,96183.38
2023-02-25T04:11:21.539Z,96192.03
2023-02-25T04:12:23.069Z,96183.53
2023-02-25T04:13:24.655Z,96188.00
2023-02-25T04:14:26.216Z,96180.41
2023-02-25T04:15:29.429Z,96181.72
2023-02-25T04:16:31.054Z,96185.06
2023-02-25T04:17:33.514Z,96184.63
2023-02-25T04:18:35.030Z,96181.72
2023-02-25T04:19:36.630Z,96183.03
2023-02-25T04:20:39.224Z,96177.03
2023-02-25T04:21:40.854Z,96178.34
2023-02-25T04:22:42.602Z,96181.59
2023-02-25T04:23:44.152Z,96183.25
2023-02-25T04:24:45.771Z,96184.41
2023-02-25T04:25:47.335Z,96182.28
2023-02-25T04:26:48.895Z,96175.06
2023-02-25T04:27:50.624Z,96176.19
2023-02-25T04:28:52.214Z,96182.84
2023-02-25T04:29:53.805Z,96182.38
2023-02-25T04:30:55.525Z,96173.72
2023-02-25T04:31:57.353Z,96174.50
2023-02-25T04:32:58.957Z,96169.03
2023-02-25T04:34:00.557Z,96165.94
2023-02-25T04:35:03.536Z,96166.56
2023-02-25T04:36:05.526Z,96169.22
2023-02-25T04:37:08.766Z,96164.34
2023-02-25T04:38:10.928Z,96172.38
2023-02-25T04:39:14.529Z,96178.16
2023-02-25T04:40:19.386Z,96176.81
2023-02-25T04:41:21.392Z,96179.72
2023-02-25T04:42:22.947Z,96178.09
2023-02-25T04:43:24.468Z,96183.06
2023-02-25T04:44:26.515Z,96183.63
2023-02-25T04:45:28.432Z,96179.78
2023-02-25T04:46:30.513Z,96181.13
2023-02-25T04:47:32.384Z,96179.47
2023-02-25T04:48:33.914Z,96183.59
2023-02-25T04:49:44.731Z,96176.44
2023-02-25T04:50:46.283Z,96179.34
2023-02-25T04:51:49.591Z,96174.44
2023-02-25T04:52:51.201Z,96177.97
2023-02-25T04:53:53.051Z,96178.44
2023-02-25T04:54:54.567Z,96178.22
2023-02-25T04:55:56.105Z,96182.44
2023-02-25T04:56:57.662Z,96176.66
2023-02-25T04:57:59.646Z,96176.41
2023-02-25T04:59:01.223Z,96173.97
2023-02-25T05:00:10.413Z,96168.38
2023-02-25T05:01:12.806Z,96172.94
2023-02-25T05:02:14.605Z,96167.94
2023-02-25T05:03:16.216Z,96170.41
2023-02-25T05:04:17.820Z,96167.97
2023-02-25T05:05:19.672Z,96167.97
2023-02-25T05:06:21.382Z,96164.84
2023-02-25T05:07:23.156Z,96166.84
2023-02-25T05:08:24.862Z,96173.19
2023-02-25T05:09:26.757Z,96161.84
2023-02-25T05:10:28.319Z,96167.28
2023-02-25T05:11:29.865Z,96164.38
2023-02-25T05:12:31.480Z,96172.16
2023-02-25T05:13:33.145Z,96169.25
2023-02-25T05:14:34.963Z,96167.69
2023-02-25T05:15:36.483Z,96164.59
2023-02-25T05:16:38.240Z,96168.41
2023-02-25T05:17:40.457Z,96166.66
2023-02-25T05:18:43.880Z,96164.88
2023-02-25T05:19:45.411Z,96171.78
2023-02-25T05:20:47.519Z,96173.09
2023-02-25T05:21:50.867Z,96158.41
2023-02-25T05:22:52.393Z,96161.03
2023-02-25T05:23:54.267Z,96155.91
2023-02-25T05:24:55.816Z,96153.47
2023-02-25T05:25:58.836Z,96154.47
2023-02-25T05:27:08.454Z,96157.47
2023-02-25T05:28:13.062Z,96161.94
2023-02-25T05:29:14.597Z,96165.94
2023-02-25T05:30:16.290Z,96165.03
2023-02-25T05:31:18.966Z,96163.69
2023-02-25T05:32:20.709Z,96168.47
2023-02-25T05:33:23.694Z,96177.06
2023-02-25T05:34:25.692Z,96172.63
2023-02-25T05:35:27.280Z,96175.03
2023-02-25T05:36:29.683Z,96178.03
2023-02-25T05:37:32.282Z,96178.03
2023-02-25T05:38:34.783Z,96173.47
2023-02-25T05:39:36.422Z,96173.50
2023-02-25T05:40:39.788Z,96169.28
2023-02-25T05:41:41.403Z,96165.38
2023-02-25T05:42:42.972Z,96168.28
2023-02-25T05:43:45.859Z,96164.47
2023-02-25T05:44:47.435Z,96162.78
2023-02-25T05:45:56.405Z,96164.81
2023-02-25T05:46:57.993Z,96177.50
2023-02-25T05:48:00.124Z,96170.84
2023-02-25T05:49:01.891Z,96177.53
2023-02-25T05:50:03.797Z,96171.03
2023-02-25T05:51:08.619Z,96171.97
2023-02-25T05:52:11.634Z,96171.28
2023-02-25T05:53:13.217Z,96180.66
2023-02-25T05:54:14.809Z,96180.13
2023-02-25T05:55:16.384Z,96176.66
2023-02-25T05:56:21.622Z,96177.22
2023-02-25T05:57:24.155Z,96168.88
2023-02-25T05:58:26.038Z,96170.31
2023-02-25T05:59:27.676Z,96163.09
2023-02-25T06:00:29.261Z,96165.53
2023-02-25T06:01:31.761Z,96169.53
2023-02-25T06:02:33.814Z,96170.44
2023-02-25T06:03:35.382Z,96161.28
2023-02-25T06:04:36.900Z,96158.84
2023-02-25T06:05:42.228Z,96170.88
2023-02-25T06:06:50.252Z,96166.41
2023-02-25T06:07:51.836Z,96164.28
2023-02-25T06:08:53.941Z,96163.19
2023-02-25T06:10:00.012Z,96152.13
2023-02-25T06:11:02.256Z,96153.69
2023-02-25T06:12:04.040Z,96157.25
2023-02-25T06:13:06.831Z,96151.22
2023-02-25T06:14:08.362Z,96156.34
2023-02-25T06:15:10.251Z,96155.97
2023-02-25T06:16:11.855Z,96157.66
2023-02-25T06:17:13.426Z,96159.66
2023-02-25T06:18:15.024Z,96157.63
2023-02-25T06:19:17.306Z,96158.50
2023-02-25T06:20:19.032Z,96158.69
2023-02-25T06:21:20.651Z,96166.47
2023-02-25T06:22:22.672Z,96159.09
2023-02-25T06:23:24.241Z,96161.50
2023-02-25T06:24:25.822Z,96169.81
2023-02-25T06:25:30.079Z,96166.00
2023-02-25T06:26:31.786Z,96166.06
2023-02-25T06:27:33.365Z,96162.94
2023-02-25T06:28:36.362Z,96161.38
2023-02-25T06:29:41.575Z,96156.69
2023-02-25T06:30:43.206Z,96160.06
2023-02-25T06:31:44.969Z,96161.63
2023-02-25T06:32:46.625Z,96159.19
2023-02-25T06:33:50.748Z,96159.94
2023-02-25T06:34:52.293Z,96149.53
2023-02-25T06:35:54.872Z,96151.38
2023-02-25T06:36:56.421Z,96159.16
2023-02-25T06:37:59.939Z,96155.56
2023-02-25T06:39:01.700Z,96154.16
2023-02-25T06:40:04.801Z,96142.34
2023-02-25T06:41:15.454Z,96141.22
2023-02-25T06:42:17.052Z,96152.13
2023-02-25T06:43:18.635Z,96140.69
2023-02-25T06:44:20.247Z,96146.91
2023-02-25T06:45:21.842Z,96145.53
2023-02-25T06:46:26.679Z,96152.38
2023-02-25T06:47:28.565Z,96152.47
2023-02-25T06:48:30.065Z,96146.44
2023-02-25T06:49:31.639Z,96145.84
2023-02-25T06:50:34.171Z,96138.25
2023-02-25T06:51:35.710Z,96139.88
2023-02-25T06:52:37.270Z,96146.16
2023-02-25T06:53:40.933Z,96140.13
2023-02-25T06:54:42.502Z,96151.63
2023-02-25T06:55:44.090Z,96153.88
2023-02-25T06:56:45.846Z,96153.88
2023-02-25T06:57:47.400Z,96149.19
2023-02-25T06:58:49.691Z,96148.66
2023-02-25T06:59:53.268Z,96154.00
2023-02-25T07:00:55.007Z,96160.66
2023-02-25T07:01:56.586Z,96155.06
2023-02-25T07:02:58.120Z,96158.06
2023-02-25T07:03:59.888Z,96155.56
2023-02-25T07:05:02.875Z,96151.06
2023-02-25T07:06:05.075Z,96157.97
2023-02-25T07:07:06.850Z,96147.44
2023-02-25T07:08:08.453Z,96150.88
2023-02-25T07:09:10.082Z,96144.88
2023-02-25T07:10:12.186Z,96152.53
2023-02-25T07:11:19.397Z,96153.41
2023-02-25T07:12:21.028Z,96153.13
2023-02-25T07:13:22.683Z,96154.91
2023-02-25T07:14:24.599Z,96149.72
2023-02-25T07:15:26.270Z,96149.44
2023-02-25T07:16:30.046Z,96148.78
2023-02-25T07:17:31.690Z,96137.16
2023-02-25T07:18:33.470Z,96136.94
2023-02-25T07:19:35.037Z,96133.63
2023-02-25T07:20:39.196Z,96133.38
2023-02-25T07:21:40.806Z,96125.50
2023-02-25T07:22:42.502Z,96119.47
2023-02-25T07:23:44.513Z,96128.44
2023-02-25T07:24:46.123Z,96122.38
2023-02-25T07:25:47.711Z,96121.34
2023-02-25T07:26:49.861Z,96117.38
2023-02-25T07:27:51.376Z,96114.97
2023-02-25T07:28:52.933Z,96116.69
2023-02-25T07:29:55.130Z,96115.22
2023-02-25T07:30:56.887Z,96120.06
2023-02-25T07:31:58.730Z,96113.41
2023-02-25T07:33:00.419Z,96105.63
2023-02-25T07:34:03.747Z,96098.31
2023-02-25T07:35:05.927Z,96102.59
2023-02-25T07:36:08.059Z,96107.34
2023-02-25T07:37:09.580Z,96105.81
2023-02-25T07:38:12.793Z,96105.53
2023-02-25T07:39:14.329Z,96106.78
2023-02-25T07:40:16.976Z,96108.69
2023-02-25T07:41:19.552Z,96106.72
2023-02-25T07:42:21.107Z,96115.53
2023-02-25T07:43:22.638Z,96118.22
2023-02-25T07:44:24.269Z,96106.38
2023-02-25T07:45:25.903Z,96102.41
2023-02-25T07:46:27.891Z,96108.34
2023-02-25T07:47:29.451Z,96101.59
2023-02-25T07:48:32.091Z,96114.56
2023-02-25T07:49:33.668Z,96110.63
2023-02-25T07:50:36.398Z,96118.28
2023-02-25T07:51:38.181Z,96113.09
2023-02-25T07:52:39.979Z,96107.41
2023-02-25T07:53:41.563Z,96104.72
2023-02-25T07:54:43.131Z,96097.09
2023-02-25T07:55:45.301Z,96110.66
2023-02-25T07:56:47.480Z,96107.97
2023-02-25T07:57:49.044Z,96098.03
2023-02-25T07:58:50.692Z,96097.25
2023-02-25T07:59:52.284Z,96098.09
2023-02-25T08:00:54.109Z,96098.16
2023-02-25T08:01:55.662Z,96107.81
2023-02-25T08:02:57.330Z,96104.88
2023-02-25T08:04:04.243Z,96098.38
2023-02-25T08:05:07.194Z,96107.13
2023-02-25T08:06:09.131Z,96108.75
2023-02-25T08:07:10.696Z,96099.94
2023-02-25T08:08:13.190Z,96096.13
2023-02-25T08:09:15.817Z,96097.75
2023-02-25T08:10:17.704Z,96106.72
2023-02-25T08:11:21.038Z,96103.34
2023-02-25T08:12:23.145Z,96093.88
2023-02-25T08:13:24.752Z,96098.97
2023-02-25T08:14:26.378Z,96089.13
2023-02-25T08:15:27.978Z,96093.72
2023-02-25T08:16:29.529Z,96086.94
2023-02-25T08:17:34.922Z,96085.81
2023-02-25T08:18:37.362Z,96079.38
2023-02-25T08:19:39.680Z,96071.81
2023-02-25T08:20:47.259Z,96072.66
2023-02-25T08:21:48.871Z,96077.31
2023-02-25T08:22:50.520Z,96072.59
2023-02-25T08:23:53.502Z,96082.25
2023-02-25T08:24:55.037Z,96078.16
2023-02-25T08:25:58.815Z,96070.50
2023-02-25T08:27:00.408Z,96070.03
2023-02-25T08:28:02.253Z,96076.06
2023-02-25T08:29:04.801Z,96069.56
2023-02-25T08:30:08.703Z,96066.09
2023-02-25T08:31:12.199Z,96060.63
2023-02-25T08:32:14.005Z,96055.69
2023-02-25T08:33:16.010Z,96064.19
2023-02-25T08:34:18.587Z,96068.09
2023-02-25T08:35:20.136Z,96061.31
2023-02-25T08:36:24.746Z,96066.78
2023-02-25T08:37:26.883Z,96068.97
2023-02-25T08:38:28.589Z,96065.06
2023-02-25T08:39:31.156Z,96066.28
2023-02-25T08:40:33.092Z,96065.25
2023-02-25T08:41:34.742Z,96070.34
2023-02-25T08:42:37.279Z,96063.13
2023-02-25T08:43:40.984Z,96063.28
2023-02-25T08:44:42.707Z,96054.84
2023-02-25T08:45:44.334Z,96051.13
2023-02-25T08:46:46.489Z,96045.25
2023-02-25T08:47:48.112Z,96049.72
2023-02-25T08:48:50.662Z,96056.34
2023-02-25T08:49:52.561Z,96055.69
2023-02-25T08:50:55.609Z,96056.50
2023-02-25T08:51:57.529Z,96056.16
2023-02-25T08:52:59.294Z,96055.03
2023-02-25T08:54:06.854Z,96060.47
2023-02-25T08:55:08.942Z,96054.78
2023-02-25T08:56:12.949Z,96049.44
2023-02-25T08:57:14.487Z,96049.50
2023-02-25T08:58:16.038Z,96052.25
2023-02-25T08:59:17.773Z,96050.81
2023-02-25T09:00:21.312Z,96050.09
2023-02-25T09:01:23.781Z,96049.78
2023-02-25T09:02:25.639Z,96049.78
2023-02-25T09:03:27.395Z,96053.34
2023-02-25T09:04:29.239Z,96047.19
2023-02-25T09:05:30.891Z,96052.97
2023-02-25T09:06:34.011Z,96049.94
2023-02-25T09:07:35.626Z,96048.84
2023-02-25T09:08:37.169Z,96046.16
2023-02-25T09:09:38.678Z,96045.41
2023-02-25T09:10:49.945Z,96044.91
2023-02-25T09:11:55.715Z,96047.28
2023-02-25T09:12:57.238Z,96038.91
2023-02-25T09:13:59.275Z,96047.28
2023-02-25T09:15:00.920Z,96038.81
2023-02-25T09:16:02.895Z,96047.28
2023-02-25T09:17:06.270Z,96034.72
2023-02-25T09:18:07.808Z,96042.84
2023-02-25T09:19:10.850Z,96033.75
2023-02-25T09:20:12.468Z,96029.19
2023-02-25T09:21:14.685Z,96022.97
2023-02-25T09:22:16.313Z,96029.19
2023-02-25T09:23:18.076Z,96036.84
2023-02-25T09:24:19.780Z,96024.47
2023-02-25T09:25:21.656Z,96023.78
2023-02-25T09:26:23.234Z,96024.59
2023-02-25T09:27:24.806Z,96025.06
2023-02-25T09:28:26.325Z,96024.28
2023-02-25T09:29:27.884Z,96018.00
2023-02-25T09:30:29.427Z,96016.81
2023-02-25T09:31:33.700Z,96011.06
2023-02-25T09:32:35.470Z,96009.59
2023-02-25T09:33:37.936Z,96012.44
2023-02-25T09:34:39.463Z,96002.47
2023-02-25T09:35:41.854Z,96006.75
2023-02-25T09:36:43.467Z,96004.44
2023-02-25T09:37:45.042Z,96007.25
2023-02-25T09:38:48.463Z,95999.66
2023-02-25T09:39:50.173Z,95991.97
2023-02-25T09:40:51.896Z,95995.09
2023-02-25T09:41:57.830Z,95999.75
2023-02-25T09:43:09.101Z,96002.53
2023-02-25T09:44:36.292Z,95996.13
2023-02-25T09:45:38.240Z,95999.97
2023-02-25T09:46:49.921Z,95986.19
2023-02-25T09:48:06.421Z,95981.66
2023-02-25T09:49:19.044Z,95990.03
2023-02-25T09:50:27.491Z,95989.69
2023-02-25T09:51:40.411Z,95991.19
2023-02-25T09:52:47.122Z,95992.41
2023-02-25T09:54:01.295Z,95983.19
2023-02-25T09:55:19.789Z,95983.97
2023-02-25T09:56:26.599Z,95987.06
2023-02-25T09:57:29.623Z,95989.03
2023-02-25T09:58:40.893Z,95981.69
2023-02-25T09:59:42.477Z,95974.09
2023-02-25T10:00:55.545Z,95972.91
2023-02-25T10:02:02.808Z,95972.19
2023-02-25T10:03:14.609Z,95970.28
2023-02-25T10:04:28.843Z,95965.69
2023-02-25T10:06:05.856Z,95956.91
2023-02-25T10:07:22.778Z,95966.63
2023-02-25T10:08:33.137Z,95968.88
2023-02-25T10:09:59.068Z,95967.28
2023-02-25T10:11:10.255Z,95967.25
2023-02-25T10:12:23.061Z,95963.44
2023-02-25T10:13:43.099Z,95954.22
2023-02-25T10:15:21.986Z,95951.59
2023-02-25T10:16:43.506Z,95948.06
2023-02-25T10:18:06.303Z,95953.50
2023-02-25T10:19:40.869Z,95944.31
2023-02-25T10:20:57.868Z,95934.38
2023-02-25T10:22:07.455Z,95931.38
2023-02-25T10:23:35.472Z,95935.63
2023-02-25T10:24:45.684Z,95928.03
2023-02-25T10:25:53.068Z,95933.06
2023-02-25T10:27:30.298Z,95936.13
2023-02-25T10:28:35.893Z,95932.31
2023-02-25T10:29:42.637Z,95931.19
2023-02-25T10:31:03.934Z,95930.00
2023-02-25T10:32:33.977Z,95933.84
2023-02-25T10:33:38.271Z,95920.34
2023-02-25T10:34:39.812Z,95922.28
2023-02-25T10:35:42.910Z,95924.22
2023-02-25T10:36:52.118Z,95923.50
2023-02-25T10:37:53.707Z,95920.00
2023-02-25T10:38:55.363Z,95912.34
2023-02-25T10:39:59.363Z,95919.69
2023-02-25T10:41:01.139Z,95928.56
2023-02-25T10:42:03.193Z,95903.13
2023-02-25T10:43:20.247Z,95911.63
2023-02-25T10:44:21.868Z,95900.84
2023-02-25T10:45:30.157Z,95896.22
2023-02-25T10:46:45.518Z,95890.81
2023-02-25T10:47:52.349Z,95903.94
2023-02-25T10:48:58.306Z,95904.69
2023-02-25T10:50:44.539Z,95908.56
2023-02-25T10:52:14.247Z,95903.16
2023-02-25T10:53:18.062Z,95899.31
2023-02-25T10:54:24.184Z,95891.19
2023-02-25T10:55:43.922Z,95889.25
2023-02-25T10:56:47.211Z,95893.91
2023-02-25T10:57:50.496Z,95891.56
2023-02-25T10:59:06.930Z,95888.50
2023-02-25T11:00:31.060Z,95883.88
2023-02-25T11:01:39.628Z,95879.22
2023-02-25T11:02:43.622Z,95873.09
2023-02-25T11:04:06.543Z,95873.06
2023-02-25T11:05:42.123Z,95863.81
2023-02-25T11:06:44.644Z,95868.44
2023-02-25T11:07:48.730Z,95863.06
2023-02-25T11:08:52.276Z,95859.97
2023-02-25T11:10:19.745Z,95859.56
2023-02-25T11:11:24.398Z,95867.66
2023-02-25T11:12:26.067Z,95856.47
2023-02-25T11:13:30.200Z,95854.19
2023-02-25T11:14:34.417Z,95863.06
2023-02-25T11:15:45.216Z,95862.28
2023-02-25T11:16:47.577Z,95850.69
2023-02-25T11:17:49.195Z,95856.47
2023-02-25T11:18:54.598Z,95853.00
2023-02-25T11:20:01.712Z,95853.41
2023-02-25T11:21:07.355Z,95842.22
2023-02-25T11:22:37.459Z,95850.69
2023-02-25T11:23:48.049Z,95858.03
2023-02-25T11:25:01.427Z,95857.66
2023-02-25T11:26:04.340Z,95840.66
2023-02-25T11:27:07.864Z,95850.69
2023-02-25T11:28:22.682Z,95849.16
2023-02-25T11:29:32.302Z,95841.41
2023-02-25T11:30:40.062Z,95842.22
2023-02-25T11:31:43.665Z,95838.34
2023-02-25T11:32:55.316Z,95837.97
2023-02-25T11:33:59.706Z,95841.81
2023-02-25T11:35:08.915Z,95838.75
2023-02-25T11:36:11.279Z,95832.16
2023-02-25T11:37:37.804Z,95825.59
2023-02-25T11:38:44.255Z,95820.59
2023-02-25T11:39:56.244Z,95852.63
2023-02-25T11:40:57.871Z,95812.88
2023-02-25T11:42:17.998Z,95816.75
2023-02-25T11:44:39.877Z,95816.75
2023-02-25T11:45:54.330Z,95825.25
2023-02-25T11:46:59.081Z,95823.69
2023-02-25T11:48:05.368Z,95816.75
2023-02-25T11:49:09.755Z,95814.06
2023-02-25T11:50:35.538Z,95818.66
2023-02-25T11:51:52.147Z,95824.47
2023-02-25T11:53:17.145Z,95819.81
2023-02-25T11:54:42.150Z,95824.84
2023-02-25T11:55:46.567Z,95821.38
2023-02-25T11:56:56.181Z,95831.81
2023-02-25T11:58:15.061Z,95826.00
2023-02-25T11:59:37.801Z,95825.25
2023-02-25T12:01:00.984Z,95829.88
2023-02-25T12:02:27.871Z,95829.50
2023-02-25T12:03:35.202Z,95821.41
2023-02-25T12:04:45.861Z,95813.28
2023-02-25T12:06:00.017Z,95818.28
2023-02-25T12:07:20.624Z,95809.03
2023-02-25T12:08:37.817Z,95820.22
2023-02-25T12:09:58.030Z,95814.44
2023-02-25T12:11:44.004Z,95816.75
2023-02-25T12:13:07.075Z,95808.28
2023-02-25T12:14:25.735Z,95800.19
2023-02-25T12:16:15.161Z,95801.31
2023-02-25T12:17:53.973Z,95793.22
2023-02-25T12:19:21.677Z,95797.84
2023-02-25T12:20:23.199Z,95801.31
2023-02-25T12:21:50.023Z,95797.47
2023-02-25T12:23:45.885Z,95797.47
2023-02-25T12:24:58.984Z,95792.44
2023-02-25T12:26:14.573Z,95792.84
2023-02-25T12:27:36.217Z,95798.59
2023-02-25T12:28:49.884Z,95782.81
2023-02-25T12:30:20.768Z,95785.50
2023-02-25T12:31:34.187Z,95790.53
2023-02-25T12:32:56.735Z,95790.53
2023-02-25T12:34:22.813Z,95794.78
2023-02-25T12:35:52.317Z,95790.91
2023-02-25T12:37:12.776Z,95795.91
2023-02-25T12:38:41.964Z,95795.16
2023-02-25T12:40:21.704Z,95792.84
2023-02-25T12:41:45.776Z,95794.38
2023-02-25T12:43:01.060Z,95796.69
2023-02-25T12:44:17.816Z,95789.38
2023-02-25T12:45:40.981Z,95793.59
2023-02-25T12:47:02.061Z,95799.78
2023-02-25T12:48:09.287Z,95779.75
2023-02-25T12:49:31.009Z,95789.75
2023-02-25T12:50:50.937Z,95795.16
2023-02-25T12:52:10.957Z,95785.50
2023-02-25T12:53:18.631Z,95782.81
2023-02-25T12:54:59.430Z,95782.06
2023-02-25T12:56:28.984Z,95775.09
2023-02-25T12:58:02.905Z,95776.66
2023-02-25T12:59:39.940Z,95769.31
2023-02-25T13:01:23.285Z,95768.16
2023-02-25T13:02:54.483Z,95772.03
2023-02-25T13:04:03.676Z,95770.47